ADDS METAR Data INFO
IDs: Format: Raw Decoded Include TAF

Data at: 0640 UTC 23 Feb 2018

KCWV 230635Z AUTO 00000KT 4SM BR CLR 15/15 A3041 RMK AO2 T01490145
KCWV 230615Z AUTO 00000KT 5SM BR CLR 15/15 A3041 RMK AO2 T01520150
KCWV 230555Z AUTO 00000KT 5SM BR CLR 16/15 A3042 RMK AO2 T01550152 10224 20155 402910155
KCWV 230535Z AUTO 00000KT 1 1/4SM BR VV007 16/15 A3042 RMK AO2 T01570154
KCWV 230515Z AUTO 00000KT 5SM BR CLR 16/15 A3043 RMK AO2 T01590154
KCWV 230455Z AUTO 00000KT 7SM CLR 16/16 A3043 RMK AO2 T01620155
KCWV 230435Z AUTO 00000KT 2SM BR CLR 17/17 A3043 RMK AO2 VIS 1V5 T01680165
KCWV 230415Z AUTO 00000KT 7SM CLR 17/17 A3043 RMK AO2 T01720167
KCWV 230355Z AUTO 00000KT 7SM CLR 17/17 A3044 RMK AO2 T01730166
KCWV 230335Z AUTO 00000KT 7SM CLR 18/17 A3043 RMK AO2 T01770168
KCWV 230315Z AUTO 00000KT 10SM CLR 18/17 A3043 RMK AO2 T01840170
KCWV 230255Z AUTO 00000KT 10SM CLR 19/18 A3043 RMK AO2 T01930175
KCWV 230235Z AUTO 00000KT 10SM CLR 20/17 A3043 RMK AO2 T01970174
KCWV 230215Z AUTO 00000KT 10SM CLR 21/18 A3042 RMK AO2 T02070177
KCWV 230155Z AUTO 00000KT 10SM CLR 21/18 A3041 RMK AO2 T02110178
KCWV 230135Z AUTO 10004KT 10SM CLR 22/18 A3041 RMK AO2 T02150180
KCWV 230115Z AUTO 10005KT 10SM CLR 22/18 A3041 RMK AO2 T02180180
KCWV 230055Z AUTO 10004KT 10SM CLR 22/18 A3041 RMK AO2 T02210178
KCWV 230035Z AUTO 09005KT 10SM CLR 22/18 A3041 RMK AO2 T02210176
KCWV 230015Z AUTO 00000KT 10SM CLR 22/17 A3040 RMK AO2 T02230172
KCWV 222355Z AUTO 00000KT 10SM CLR 22/18 A3040 RMK AO2 T02170175 10291 20216
KCWV 222335Z AUTO 00000KT 10SM CLR 22/17 A3039 RMK AO2 T02200174
KCWV 222315Z AUTO 00000KT 10SM CLR 24/17 A3039 RMK AO2 T02350171
KCWV 222255Z AUTO 00000KT 10SM SCT055 25/16 A3038 RMK AO2 T02530161
KCWV 222235Z AUTO 00000KT 7SM BKN055 27/15 A3038 RMK AO2 T02670154
KCWV 222215Z AUTO 00000KT 10SM SCT055 28/16 A3038 RMK AO2 T02770156
KCWV 222155Z AUTO 07004KT 10SM BKN055 28/15 A3037 RMK AO2 T02800153
KCWV 222135Z AUTO 00000KT 10SM SCT055 27/16 A3038 RMK AO2 T02700158
KCWV 222115Z AUTO 00000KT 10SM SCT055 27/15 A3038 RMK AO2 T02740153
KCWV 222055Z AUTO 10005KT 10SM OVC055 29/15 A3038 RMK AO2 T02870148
KCWV 222035Z AUTO 00000KT 10SM OVC049 28/15 A3038 RMK AO2 T02810150
KCWV 222015Z AUTO 00000KT 7SM BKN049 28/15 A3039 RMK AO2 T02840151
KCWV 221955Z AUTO 00000KT 10SM SCT049 29/16 A3040 RMK AO2 T02850156
KCWV 221935Z AUTO 00000KT 10SM BKN049 28/15 A3040 RMK AO2 T02840151
KCWV 221915Z AUTO 09005KT 10SM OVC049 28/16 A3041 RMK AO2 T02820156
KCWV 221855Z AUTO 05008KT 10SM OVC047 28/16 A3042 RMK AO2 T02830160
KCWV 221835Z AUTO 06003KT 10SM SCT042 OVC049 27/16 A3043 RMK AO2 T02690159
KCWV 221815Z AUTO 22003KT 10SM BKN040 BKN048 27/17 A3044 RMK AO2 T02680170
KCWV 221755Z AUTO 00000KT 10SM SCT038 BKN048 27/17 A3045 RMK AO2 T02660171 10272 20195
KCWV 221735Z AUTO 02003KT 10SM SCT038 BKN048 27/17 A3046 RMK AO2 T02690172
KCWV 221715Z AUTO 00000KT 10SM BKN046 26/17 A3047 RMK AO2 T02580172
KCWV 221655Z AUTO 00000KT 5SM HZ SCT046 24/19 A3048 RMK AO2 T02430187
KCWV 221635Z AUTO 00000KT 10SM SCT023 SCT030 BKN044 24/19 A3048 RMK AO2 T02430189
KCWV 221615Z AUTO 00000KT 10SM BKN022 BKN030 OVC043 24/19 A3049 RMK AO2 T02400191
KCWV 221555Z AUTO 00000KT 10SM BKN016 BKN023 OVC045 24/20 A3049 RMK AO2 T02360195
KCWV 221535Z AUTO 18003KT 10SM BKN014 BKN021 OVC045 23/20 A3049 RMK AO2 T02340196
KCWV 221515Z AUTO 00000KT 10SM BKN014 OVC045 23/20 A3050 RMK AO2 T02280197
KCWV 221455Z AUTO 00000KT 10SM BKN007 BKN014 OVC045 22/20 A3049 RMK AO2 T02240201
KCWV 221435Z AUTO 00000KT 7SM BKN005 BKN009 OVC014 22/20 A3049 RMK AO2 T02190204
KCWV 221415Z AUTO 00000KT 5SM BR OVC003 21/20 A3049 RMK AO2 T02100203
KCWV 221355Z AUTO 00000KT 5SM BR OVC003 21/20 A3048 RMK AO2 T02050201
KCWV 221335Z AUTO 00000KT 4SM BR OVC003 20/20 A3048 RMK AO2 T02030200
KCWV 221315Z AUTO 00000KT 2SM BR OVC003 20/20 A3048 RMK AO2 T02000197
KCWV 221255Z AUTO 00000KT 1 3/4SM BR OVC003 20/20 A3047 RMK AO2 T01990196
KCWV 221235Z AUTO 00000KT 3/4SM -RA OVC003 20/20 A3046 RMK AO2 T01970195
KCWV 221215Z AUTO 00000KT 1/4SM FG OVC003 20/19 A3045 RMK AO2 T01950193
KCWV 221155Z AUTO 00000KT 3/4SM BR OVC003 20/20 A3045 RMK AO2 LTG DSNT W T01960195 10205 20185
KCWV 221135Z AUTO 00000KT 3/4SM BR OVC003 20/19 A3044 RMK AO2 T01950193
KCWV 221115Z AUTO 00000KT 1 3/4SM BR OVC003 20/19 A3044 RMK AO2 T01950192
KCWV 221055Z AUTO 00000KT 3SM BR BKN003 OVC023 20/19 A3043 RMK AO2 T01960193
KCWV 221035Z AUTO 00000KT 2SM BR OVC003 20/19 A3043 RMK AO2 T01960193
KCWV 221015Z AUTO 00000KT 4SM BR OVC003 20/19 A3042 RMK AO2 T01970193
KCWV 220955Z AUTO 00000KT 5SM BR OVC003 20/19 A3042 RMK AO2 T01950191
KCWV 220935Z AUTO 00000KT 5SM BR OVC003 20/20 A3042 RMK AO2 T02000196
KCWV 220915Z AUTO 00000KT 7SM OVC005 20/20 A3041 RMK AO2 T01980195
KCWV 220855Z AUTO 00000KT 5SM BR OVC005 19/19 A3041 RMK AO2 T01910187
KCWV 220835Z AUTO 00000KT 5SM BR OVC005 19/19 A3041 RMK AO2 T01890185
KCWV 220815Z AUTO 00000KT 5SM BR BKN005 BKN013 19/18 A3041 RMK AO2 T01870183
KCWV 220755Z AUTO 00000KT 5SM BR CLR 20/19 A3041 RMK AO2 T01950191
KCWV 220735Z AUTO 00000KT 5SM BR CLR 20/19 A3041 RMK AO2 T01980194
KCWV 220715Z AUTO 00000KT 7SM SCT006 SCT009 20/20 A3041 RMK AO2 T02010196
KCWV 220655Z AUTO 00000KT 5SM BR BKN006 BKN011 20/20 A3041 RMK AO2 T02040198
KCWV 220635Z AUTO 00000KT 7SM OVC006 21/20 A3042 RMK AO2 T02050200
KCWV 220615Z AUTO 00000KT 7SM OVC006 20/20 A3042 RMK AO2 T02020198
KCWV 220555Z AUTO 00000KT 7SM SCT006 SCT012 20/20 A3041 RMK AO2 T02000196 10245 20195 403000188
KCWV 220535Z AUTO 00000KT 7SM CLR 20/19 A3041 RMK AO2 T01990194
KCWV 220515Z AUTO 00000KT 7SM CLR 20/20 A3041 RMK AO2 T02000195
KCWV 220455Z AUTO 00000KT 7SM CLR 20/19 A3041 RMK AO2 T01990194
KCWV 220435Z AUTO 00000KT 7SM CLR 20/20 A3042 RMK AO2 T02010196
KCWV 220415Z AUTO 00000KT 7SM CLR 20/19 A3042 RMK AO2 T01980190
KCWV 220355Z AUTO 00000KT 7SM CLR 20/20 A3042 RMK AO2 T02020195
KCWV 220035Z AUTO 09005KT 10SM CLR 24/18 A3039 RMK AO2 T02350181
KCWV 220015Z AUTO 09003KT 10SM CLR 24/18 A3039 RMK AO2 T02400183
KCWV 212355Z AUTO 09003KT 10SM CLR 25/19 A3038 RMK AO2 T02450185 10300 20245
KCWV 212335Z AUTO 09005KT 10SM CLR 25/19 A3038 RMK AO2 T02490186
KCWV 212315Z AUTO 10004KT 10SM SCT065 26/19 A3038 RMK AO2 T02560188
KCWV 212255Z AUTO 09009KT 10SM SCT047 SCT055 SCT065 26/19 A3037 RMK AO2 T02640190
KCWV 212235Z AUTO 09008KT 10SM SCT044 SCT055 SCT075 27/19 A3036 RMK AO2 T02720194
KCWV 212215Z AUTO 10005KT 10SM SCT038 SCT046 BKN075 28/19 A3036 RMK AO2 T02760194
KCWV 212155Z AUTO 06006KT 10SM SCT038 BKN046 OVC075 28/20 A3035 RMK AO2 T02770196
KCWV 212135Z AUTO 09006KT 10SM OVC075 28/19 A3035 RMK AO2 T02820190
KCWV 212115Z AUTO 11006KT 10SM SCT050 SCT060 BKN075 29/18 A3035 RMK AO2 T02860181
KCWV 212055Z AUTO 13003KT 10SM SCT050 SCT060 BKN075 29/18 A3035 RMK AO2 T02930183
KCWV 212035Z AUTO 14003KT 10SM SCT045 SCT050 BKN075 29/18 A3036 RMK AO2 T02930184
KCWV 212015Z AUTO 10003KT 10SM SCT043 SCT050 BKN065 29/19 A3036 RMK AO2 T02850188
KCWV 211955Z AUTO 16003KT 7SM SCT041 SCT048 SCT065 29/19 A3036 RMK AO2 T02940188
KCWV 211935Z AUTO 00000KT 10SM BKN065 29/19 A3037 RMK AO2 T02870191
KCWV 211915Z AUTO 00000KT 10SM OVC065 28/20 A3038 RMK AO2 T02830195